UUWW/VKO METAR and TAF weather

Enter ICAO airport designator
Station Type Date Time Source
UUWW METAR 2020/03/31 06:00 UTC NOAA

UUWW 310600Z 36007MPS 1000 0900SW R06/1100D +SN OVC009 M05/M07 Q1010 R06/550242 TEMPO 0600 +SHSN BKN020CB


Station Type Date Time Source
UUWW Decoded METAR 2020/03/31 06:00 UTC NOAA

Moscow / Vnukovo , Russia (UUWW) 55-39N 037-16E
Mar 31, 2020 - 02:00 AM EDT / 2020.03.31 0600 UTC
Wind: from the N (360 degrees) at 16 MPH (14 KT):0
Visibility: less than 1 mile:0
Sky conditions: overcast
Weather: heavy snow; Cumulonimbus clouds observed
Temperature: 23 F (-5 C)
Windchill: 10 F (-12 C):1
Dew Point: 19 F (-7 C)
Relative Humidity: 85%
Pressure (altimeter): 29.83 in. Hg (1010 hPa)
ob: UUWW 310600Z 36007MPS 1000 0900SW R06/1100D +SN OVC009 M05/M07 Q1010 R06/550242 TEMPO 0600 +SHSN BKN020CB
cycle: 6

Station Type Date Time Source
UUWW TAF 2020/03/31 06:21 UTC NOAA

TAF UUWW 310457Z 3106/0106 01007MPS 1500 SN OVC007 TXM02/3112Z TNM07/0103Z
TEMPO 3106/3116 36009G16MPS 0500 +SHSN BKN003 BKN020CB
BECMG 3116/3119 30003G08MPS
BECMG 3119/3121 6000 NSW BKN011

Example: see airport list